sensor_id;sensor_type;location;lat;lon;timestamp;pressure;altitude;pressure_sealevel;temperature;humidity
57234;BME280;43090;52.604;13.318;2023-05-16T00:01:38;100353.72;;;14.87;77.45
57234;BME280;43090;52.604;13.318;2023-05-16T00:04:05;100354.69;;;14.86;76.99
57234;BME280;43090;52.604;13.318;2023-05-16T00:06:32;100353.00;;;14.85;76.68
57234;BME280;43090;52.604;13.318;2023-05-16T00:09:00;100349.69;;;15.01;76.30
57234;BME280;43090;52.604;13.318;2023-05-16T00:11:26;100359.41;;;15.12;75.96
57234;BME280;43090;52.604;13.318;2023-05-16T00:13:53;100339.97;;;14.80;76.54
57234;BME280;43090;52.604;13.318;2023-05-16T00:16:20;100347.78;;;14.74;76.50
57234;BME280;43090;52.604;13.318;2023-05-16T00:18:47;100366.31;;;14.87;76.12
57234;BME280;43090;52.604;13.318;2023-05-16T00:21:13;100362.47;;;14.99;76.22
57234;BME280;43090;52.604;13.318;2023-05-16T00:23:40;100359.00;;;14.69;77.06
57234;BME280;43090;52.604;13.318;2023-05-16T00:26:07;100370.88;;;14.86;76.35
57234;BME280;43090;52.604;13.318;2023-05-16T00:28:33;100359.69;;;14.81;76.43
57234;BME280;43090;52.604;13.318;2023-05-16T00:31:00;100376.53;;;14.93;76.26
57234;BME280;43090;52.604;13.318;2023-05-16T00:33:26;100361.28;;;14.54;77.36
57234;BME280;43090;52.604;13.318;2023-05-16T00:35:53;100371.88;;;14.85;76.61
57234;BME280;43090;52.604;13.318;2023-05-16T00:38:19;100379.38;;;14.81;77.01
57234;BME280;43090;52.604;13.318;2023-05-16T00:40:46;100376.13;;;14.88;76.56
57234;BME280;43090;52.604;13.318;2023-05-16T00:43:13;100364.09;;;14.72;77.17
57234;BME280;43090;52.604;13.318;2023-05-16T00:45:40;100384.66;;;14.54;78.88
57234;BME280;43090;52.604;13.318;2023-05-16T00:48:06;100379.41;;;14.72;77.84
57234;BME280;43090;52.604;13.318;2023-05-16T00:50:35;100373.47;;;14.68;78.33
57234;BME280;43090;52.604;13.318;2023-05-16T00:53:02;100378.41;;;14.53;79.13
57234;BME280;43090;52.604;13.318;2023-05-16T00:55:29;100384.38;;;14.57;78.89
57234;BME280;43090;52.604;13.318;2023-05-16T00:57:56;100389.63;;;14.58;78.92
57234;BME280;43090;52.604;13.318;2023-05-16T01:00:23;100389.63;;;14.48;79.01
57234;BME280;43090;52.604;13.318;2023-05-16T01:02:50;100399.81;;;14.06;82.30
57234;BME280;43090;52.604;13.318;2023-05-16T01:05:19;100387.34;;;14.05;82.17
57234;BME280;43090;52.604;13.318;2023-05-16T01:07:46;100402.63;;;13.94;83.59
57234;BME280;43090;52.604;13.318;2023-05-16T01:10:13;100404.38;;;14.15;82.00
57234;BME280;43090;52.604;13.318;2023-05-16T01:12:47;100415.69;;;13.89;83.65
57234;BME280;43090;52.604;13.318;2023-05-16T01:15:31;100416.97;;;13.95;83.95
57234;BME280;43090;52.604;13.318;2023-05-16T01:18:05;100408.94;;;13.33;87.18
57234;BME280;43090;52.604;13.318;2023-05-16T01:20:48;100415.53;;;13.40;88.15
57234;BME280;43090;52.604;13.318;2023-05-16T01:23:26;100412.41;;;13.86;85.00
57234;BME280;43090;52.604;13.318;2023-05-16T01:26:21;100417.63;;;13.77;85.40
57234;BME280;43090;52.604;13.318;2023-05-16T01:28:50;100422.47;;;13.43;87.51
57234;BME280;43090;52.604;13.318;2023-05-16T01:31:17;100437.53;;;13.34;88.08
57234;BME280;43090;52.604;13.318;2023-05-16T01:33:44;100424.97;;;13.65;86.75
57234;BME280;43090;52.604;13.318;2023-05-16T01:51:40;100441.44;;;12.57;94.78
57234;BME280;43090;52.604;13.318;2023-05-16T01:54:10;100440.88;;;12.74;92.30
57234;BME280;43090;52.604;13.318;2023-05-16T01:56:38;100441.34;;;13.00;89.78
57234;BME280;43090;52.604;13.318;2023-05-16T01:59:07;100440.81;;;12.86;89.67
57234;BME280;43090;52.604;13.318;2023-05-16T02:01:33;100450.56;;;12.65;90.13
57234;BME280;43090;52.604;13.318;2023-05-16T02:04:00;100449.97;;;12.83;88.15
57234;BME280;43090;52.604;13.318;2023-05-16T02:06:27;100465.13;;;12.84;88.00
57234;BME280;43090;52.604;13.318;2023-05-16T02:08:53;100469.38;;;13.08;86.46
57234;BME280;43090;52.604;13.318;2023-05-16T02:11:20;100478.69;;;12.82;nan
57234;BME280;43090;52.604;13.318;2023-05-16T02:13:47;100474.81;;;12.54;87.82
57234;BME280;43090;52.604;13.318;2023-05-16T02:16:13;100474.16;;;12.83;86.39
57234;BME280;43090;52.604;13.318;2023-05-16T02:18:40;100486.00;;;12.59;86.84
57234;BME280;43090;52.604;13.318;2023-05-16T02:21:07;100482.31;;;12.60;86.52
57234;BME280;43090;52.604;13.318;2023-05-16T02:23:34;100500.91;;;12.63;86.19
57234;BME280;43090;52.604;13.318;2023-05-16T02:26:01;100504.34;;;12.54;86.37
57234;BME280;43090;52.604;13.318;2023-05-16T02:28:27;100501.59;;;12.65;86.20
57234;BME280;43090;52.604;13.318;2023-05-16T02:30:57;100492.84;;;12.63;86.03
57234;BME280;43090;52.604;13.318;2023-05-16T02:33:25;100504.97;;;13.00;84.09
57234;BME280;43090;52.604;13.318;2023-05-16T02:35:53;100503.41;;;12.44;84.37
57234;BME280;43090;52.604;13.318;2023-05-16T02:38:20;100494.28;;;12.68;84.07
57234;BME280;43090;52.604;13.318;2023-05-16T02:40:47;100496.22;;;12.65;84.09
57234;BME280;43090;52.604;13.318;2023-05-16T02:43:14;100499.38;;;12.71;84.08
57234;BME280;43090;52.604;13.318;2023-05-16T02:45:41;100507.56;;;12.37;85.48
57234;BME280;43090;52.604;13.318;2023-05-16T02:48:07;100523.69;;;12.69;83.67
57234;BME280;43090;52.604;13.318;2023-05-16T02:50:34;100515.53;;;12.15;85.13
57234;BME280;43090;52.604;13.318;2023-05-16T02:53:00;100537.28;;;12.56;84.54
57234;BME280;43090;52.604;13.318;2023-05-16T02:55:28;100535.28;;;12.37;85.31
57234;BME280;43090;52.604;13.318;2023-05-16T02:57:54;100537.44;;;12.43;85.65
57234;BME280;43090;52.604;13.318;2023-05-16T03:00:20;100527.50;;;12.11;86.53
57234;BME280;43090;52.604;13.318;2023-05-16T03:02:47;100537.28;;;12.56;84.68
57234;BME280;43090;52.604;13.318;2023-05-16T03:05:14;100538.03;;;12.58;83.66
57234;BME280;43090;52.604;13.318;2023-05-16T03:07:40;100544.78;;;12.30;84.71
57234;BME280;43090;52.604;13.318;2023-05-16T03:10:07;100546.41;;;12.10;86.59
57234;BME280;43090;52.604;13.318;2023-05-16T03:12:34;100546.13;;;12.36;84.96
57234;BME280;43090;52.604;13.318;2023-05-16T03:15:00;100552.78;;;11.97;85.70
57234;BME280;43090;52.604;13.318;2023-05-16T03:17:27;100551.25;;;12.27;85.91
57234;BME280;43090;52.604;13.318;2023-05-16T03:19:54;100553.88;;;12.50;84.43
57234;BME280;43090;52.604;13.318;2023-05-16T03:22:20;100558.69;;;12.46;84.37
57234;BME280;43090;52.604;13.318;2023-05-16T03:24:47;100565.22;;;12.65;83.23
57234;BME280;43090;52.604;13.318;2023-05-16T03:27:13;100576.03;;;12.42;84.19
57234;BME280;43090;52.604;13.318;2023-05-16T03:29:40;100570.53;;;12.32;84.41
57234;BME280;43090;52.604;13.318;2023-05-16T03:32:07;100574.81;;;12.35;84.45
57234;BME280;43090;52.604;13.318;2023-05-16T03:34:35;100582.00;;;12.23;84.52
57234;BME280;43090;52.604;13.318;2023-05-16T03:37:01;100575.81;;;12.11;85.97
57234;BME280;43090;52.604;13.318;2023-05-16T03:39:28;100575.69;;;12.24;85.09
57234;BME280;43090;52.604;13.318;2023-05-16T03:41:57;100589.59;;;12.18;84.86
57234;BME280;43090;52.604;13.318;2023-05-16T03:44:23;100588.13;;;12.14;85.24
57234;BME280;43090;52.604;13.318;2023-05-16T03:46:50;100595.31;;;12.02;85.63
57234;BME280;43090;52.604;13.318;2023-05-16T03:49:18;100602.50;;;12.36;84.78
57234;BME280;43090;52.604;13.318;2023-05-16T03:51:46;100596.91;;;12.16;85.11
57234;BME280;43090;52.604;13.318;2023-05-16T03:54:12;100596.13;;;11.80;86.84
57234;BME280;43090;52.604;13.318;2023-05-16T03:56:40;100587.03;;;12.05;86.29
57234;BME280;43090;52.604;13.318;2023-05-16T03:59:06;100590.44;;;12.07;85.64
57234;BME280;43090;52.604;13.318;2023-05-16T04:01:33;100578.63;;;12.21;84.97
57234;BME280;43090;52.604;13.318;2023-05-16T04:03:59;100602.41;;;12.26;85.28
57234;BME280;43090;52.604;13.318;2023-05-16T04:06:26;100565.66;;;11.92;84.92
57234;BME280;43090;52.604;13.318;2023-05-16T04:08:52;100592.50;;;12.04;84.73
57234;BME280;43090;52.604;13.318;2023-05-16T04:11:19;100597.22;;;11.66;86.98
57234;BME280;43090;52.604;13.318;2023-05-16T04:13:46;100595.91;;;11.83;87.03
57234;BME280;43090;52.604;13.318;2023-05-16T04:16:13;100611.69;;;11.99;85.38
57234;BME280;43090;52.604;13.318;2023-05-16T04:18:39;100589.28;;;11.53;87.51
57234;BME280;43090;52.604;13.318;2023-05-16T04:21:06;100597.38;;;11.98;85.88
57234;BME280;43090;52.604;13.318;2023-05-16T04:23:36;100608.78;;;11.66;88.36
57234;BME280;43090;52.604;13.318;2023-05-16T04:26:02;100612.41;;;12.12;85.79
57234;BME280;43090;52.604;13.318;2023-05-16T04:28:31;100616.03;;;11.89;87.24
57234;BME280;43090;52.604;13.318;2023-05-16T04:30:58;100629.75;;;11.61;87.68
57234;BME280;43090;52.604;13.318;2023-05-16T04:33:25;100624.81;;;11.91;86.54
57234;BME280;43090;52.604;13.318;2023-05-16T04:35:51;100640.63;;;11.82;86.55
57234;BME280;43090;52.604;13.318;2023-05-16T04:38:18;100639.91;;;11.92;85.09
57234;BME280;43090;52.604;13.318;2023-05-16T04:40:45;100643.50;;;12.04;85.03
57234;BME280;43090;52.604;13.318;2023-05-16T04:43:11;100642.94;;;11.64;85.92
57234;BME280;43090;52.604;13.318;2023-05-16T04:45:38;100651.75;;;11.89;85.60
57234;BME280;43090;52.604;13.318;2023-05-16T04:48:05;100652.50;;;11.91;85.11
57234;BME280;43090;52.604;13.318;2023-05-16T04:50:31;100661.22;;;12.18;84.37
57234;BME280;43090;52.604;13.318;2023-05-16T04:52:58;100649.41;;;11.73;85.56
57234;BME280;43090;52.604;13.318;2023-05-16T04:55:24;100669.06;;;11.85;85.86
57234;BME280;43090;52.604;13.318;2023-05-16T04:57:52;100663.03;;;11.59;86.78
57234;BME280;43090;52.604;13.318;2023-05-16T05:00:18;100682.16;;;11.54;86.59
57234;BME280;43090;52.604;13.318;2023-05-16T05:02:45;100669.09;;;11.49;87.30
57234;BME280;43090;52.604;13.318;2023-05-16T05:05:12;100677.44;;;11.69;87.10
57234;BME280;43090;52.604;13.318;2023-05-16T05:07:39;100680.69;;;11.50;86.54
57234;BME280;43090;52.604;13.318;2023-05-16T05:10:06;100694.97;;;11.62;86.21
57234;BME280;43090;52.604;13.318;2023-05-16T05:12:34;100691.84;;;11.32;85.24
57234;BME280;43090;52.604;13.318;2023-05-16T05:15:01;100699.94;;;11.20;86.15
57234;BME280;43090;52.604;13.318;2023-05-16T05:17:30;100693.94;;;11.16;86.75
57234;BME280;43090;52.604;13.318;2023-05-16T05:19:56;100698.19;;;11.43;85.90
57234;BME280;43090;52.604;13.318;2023-05-16T05:22:23;100703.53;;;11.31;85.42
57234;BME280;43090;52.604;13.318;2023-05-16T05:24:50;100700.09;;;11.29;84.96
57234;BME280;43090;52.604;13.318;2023-05-16T05:27:17;100710.47;;;11.10;84.80
57234;BME280;43090;52.604;13.318;2023-05-16T05:29:43;100703.94;;;11.14;85.85
57234;BME280;43090;52.604;13.318;2023-05-16T05:32:10;100719.38;;;11.34;85.16
57234;BME280;43090;52.604;13.318;2023-05-16T05:34:36;100720.84;;;11.14;86.30
57234;BME280;43090;52.604;13.318;2023-05-16T05:37:03;100715.13;;;11.19;84.65
57234;BME280;43090;52.604;13.318;2023-05-16T05:39:29;100712.97;;;11.48;83.80
57234;BME280;43090;52.604;13.318;2023-05-16T05:41:56;100740.25;;;11.42;84.09
57234;BME280;43090;52.604;13.318;2023-05-16T05:44:26;100718.72;;;11.31;84.68
57234;BME280;43090;52.604;13.318;2023-05-16T05:46:52;100736.88;;;11.52;82.68
57234;BME280;43090;52.604;13.318;2023-05-16T05:49:19;100742.53;;;11.11;84.69
57234;BME280;43090;52.604;13.318;2023-05-16T05:51:45;100757.53;;;11.38;83.99
57234;BME280;43090;52.604;13.318;2023-05-16T05:54:12;100760.84;;;11.77;82.18
57234;BME280;43090;52.604;13.318;2023-05-16T05:56:39;100753.13;;;11.37;83.64
57234;BME280;43090;52.604;13.318;2023-05-16T05:59:05;100750.34;;;11.63;82.36
57234;BME280;43090;52.604;13.318;2023-05-16T06:01:32;100766.56;;;11.73;81.40
57234;BME280;43090;52.604;13.318;2023-05-16T06:03:58;100760.72;;;12.03;80.80
57234;BME280;43090;52.604;13.318;2023-05-16T06:06:27;100746.34;;;11.80;80.82
57234;BME280;43090;52.604;13.318;2023-05-16T06:08:54;100769.38;;;11.95;80.48
57234;BME280;43090;52.604;13.318;2023-05-16T06:11:21;100735.09;;;11.63;79.86
57234;BME280;43090;52.604;13.318;2023-05-16T06:13:47;100755.91;;;11.84;80.43
57234;BME280;43090;52.604;13.318;2023-05-16T06:16:14;100764.84;;;11.96;79.98
57234;BME280;43090;52.604;13.318;2023-05-16T06:18:40;100783.53;;;11.97;79.94
57234;BME280;43090;52.604;13.318;2023-05-16T06:21:07;100770.00;;;11.99;80.37
57234;BME280;43090;52.604;13.318;2023-05-16T06:23:34;100790.44;;;11.64;79.92
57234;BME280;43090;52.604;13.318;2023-05-16T06:26:02;100785.41;;;11.84;79.17
57234;BME280;43090;52.604;13.318;2023-05-16T06:28:28;100769.44;;;11.94;78.93
57234;BME280;43090;52.604;13.318;2023-05-16T06:30:55;100792.84;;;11.92;79.30
57234;BME280;43090;52.604;13.318;2023-05-16T06:33:22;100756.47;;;11.76;79.68
57234;BME280;43090;52.604;13.318;2023-05-16T06:35:48;100765.78;;;11.59;80.02
57234;BME280;43090;52.604;13.318;2023-05-16T06:38:16;100771.28;;;11.93;78.96
57234;BME280;43090;52.604;13.318;2023-05-16T06:40:44;100785.56;;;12.29;77.66
57234;BME280;43090;52.604;13.318;2023-05-16T06:43:11;100793.31;;;12.10;78.20
57234;BME280;43090;52.604;13.318;2023-05-16T06:45:37;100780.72;;;11.99;78.00
57234;BME280;43090;52.604;13.318;2023-05-16T06:48:06;100785.00;;;12.13;78.11
57234;BME280;43090;52.604;13.318;2023-05-16T06:50:33;100778.22;;;12.20;77.58
57234;BME280;43090;52.604;13.318;2023-05-16T06:53:01;100812.28;;;12.31;77.49
57234;BME280;43090;52.604;13.318;2023-05-16T06:55:29;100823.84;;;12.20;77.25
57234;BME280;43090;52.604;13.318;2023-05-16T06:57:56;100828.38;;;12.31;76.53
57234;BME280;43090;52.604;13.318;2023-05-16T07:00:22;100817.59;;;12.20;76.78
57234;BME280;43090;52.604;13.318;2023-05-16T07:02:50;100812.03;;;12.34;77.14
57234;BME280;43090;52.604;13.318;2023-05-16T07:05:17;100824.78;;;12.08;76.84
57234;BME280;43090;52.604;13.318;2023-05-16T07:07:43;100829.06;;;12.57;76.41
57234;BME280;43090;52.604;13.318;2023-05-16T07:10:10;100832.22;;;12.51;76.84
57234;BME280;43090;52.604;13.318;2023-05-16T07:12:39;100830.97;;;12.44;75.88
57234;BME280;43090;52.604;13.318;2023-05-16T07:15:06;100824.84;;;12.30;77.06
57234;BME280;43090;52.604;13.318;2023-05-16T07:17:33;100828.50;;;12.41;76.93
57234;BME280;43090;52.604;13.318;2023-05-16T07:20:00;100827.13;;;12.12;76.43
57234;BME280;43090;52.604;13.318;2023-05-16T07:22:30;100839.97;;;12.31;75.71
57234;BME280;43090;52.604;13.318;2023-05-16T07:24:57;100824.41;;;12.59;75.53
57234;BME280;43090;52.604;13.318;2023-05-16T07:27:26;100843.34;;;12.69;74.28
57234;BME280;43090;52.604;13.318;2023-05-16T07:29:53;100842.19;;;12.38;74.17
57234;BME280;43090;52.604;13.318;2023-05-16T07:32:19;100833.38;;;12.36;74.59
57234;BME280;43090;52.604;13.318;2023-05-16T07:34:46;100850.63;;;12.33;74.13
57234;BME280;43090;52.604;13.318;2023-05-16T07:37:13;100854.88;;;12.36;74.55
57234;BME280;43090;52.604;13.318;2023-05-16T07:39:41;100845.84;;;12.37;74.41
57234;BME280;43090;52.604;13.318;2023-05-16T07:42:08;100866.03;;;12.54;73.13
57234;BME280;43090;52.604;13.318;2023-05-16T07:44:35;100861.63;;;12.17;74.62
57234;BME280;43090;52.604;13.318;2023-05-16T07:47:01;100857.72;;;12.45;73.71
57234;BME280;43090;52.604;13.318;2023-05-16T07:49:28;100850.53;;;12.69;72.60
57234;BME280;43090;52.604;13.318;2023-05-16T07:51:54;100864.44;;;12.51;73.51
57234;BME280;43090;52.604;13.318;2023-05-16T07:54:21;100852.50;;;12.20;74.47
57234;BME280;43090;52.604;13.318;2023-05-16T07:56:47;100846.72;;;12.48;73.17
57234;BME280;43090;52.604;13.318;2023-05-16T07:59:14;100862.63;;;12.52;73.32
57234;BME280;43090;52.604;13.318;2023-05-16T08:01:40;100869.72;;;12.64;72.58
57234;BME280;43090;52.604;13.318;2023-05-16T08:04:07;100852.19;;;12.36;72.75
57234;BME280;43090;52.604;13.318;2023-05-16T08:06:34;100874.78;;;12.33;73.18
57234;BME280;43090;52.604;13.318;2023-05-16T08:09:00;100857.78;;;12.21;73.62
57234;BME280;43090;52.604;13.318;2023-05-16T08:11:27;100850.38;;;12.00;73.01
57234;BME280;43090;52.604;13.318;2023-05-16T08:13:53;100877.75;;;12.17;73.62
57234;BME280;43090;52.604;13.318;2023-05-16T08:16:20;100875.25;;;12.38;73.89
57234;BME280;43090;52.604;13.318;2023-05-16T08:18:46;100872.00;;;12.10;75.42
57234;BME280;43090;52.604;13.318;2023-05-16T08:21:13;100879.06;;;11.63;74.30
57234;BME280;43090;52.604;13.318;2023-05-16T08:23:42;100882.38;;;12.15;73.60
57234;BME280;43090;52.604;13.318;2023-05-16T08:26:09;100876.28;;;12.13;74.21
57234;BME280;43090;52.604;13.318;2023-05-16T08:28:35;100876.72;;;12.31;71.23
57234;BME280;43090;52.604;13.318;2023-05-16T08:31:02;100900.28;;;12.39;73.50
57234;BME280;43090;52.604;13.318;2023-05-16T08:33:28;100902.97;;;12.74;72.86
57234;BME280;43090;52.604;13.318;2023-05-16T08:35:55;100887.50;;;12.42;72.47
57234;BME280;43090;52.604;13.318;2023-05-16T08:38:22;100907.53;;;12.49;71.88
57234;BME280;43090;52.604;13.318;2023-05-16T08:40:48;100901.81;;;12.54;71.34
57234;BME280;43090;52.604;13.318;2023-05-16T08:43:15;100913.19;;;12.69;71.04
57234;BME280;43090;52.604;13.318;2023-05-16T08:45:42;100896.97;;;11.87;72.52
57234;BME280;43090;52.604;13.318;2023-05-16T08:48:09;100920.19;;;12.36;71.19
57234;BME280;43090;52.604;13.318;2023-05-16T08:50:37;100915.13;;;12.31;73.94
57234;BME280;43090;52.604;13.318;2023-05-16T08:53:05;100910.31;;;12.12;72.55
57234;BME280;43090;52.604;13.318;2023-05-16T08:55:34;100881.19;;;12.19;71.82
57234;BME280;43090;52.604;13.318;2023-05-16T08:58:05;100885.00;;;12.28;70.33
57234;BME280;43090;52.604;13.318;2023-05-16T09:00:32;100892.94;;;12.29;71.25
57234;BME280;43090;52.604;13.318;2023-05-16T09:02:58;100911.19;;;12.48;70.13
57234;BME280;43090;52.604;13.318;2023-05-16T09:05:26;100913.44;;;12.06;71.01
57234;BME280;43090;52.604;13.318;2023-05-16T09:07:53;100896.91;;;12.12;70.86
57234;BME280;43090;52.604;13.318;2023-05-16T09:10:20;100909.50;;;12.59;70.48
57234;BME280;43090;52.604;13.318;2023-05-16T09:12:47;100894.38;;;12.69;70.68
57234;BME280;43090;52.604;13.318;2023-05-16T09:15:13;100895.81;;;12.50;69.55
57234;BME280;43090;52.604;13.318;2023-05-16T09:17:43;100906.69;;;12.49;69.36
57234;BME280;43090;52.604;13.318;2023-05-16T09:20:15;100894.69;;;12.42;71.73
57234;BME280;43090;52.604;13.318;2023-05-16T09:22:51;100896.16;;;12.46;71.07
57234;BME280;43090;52.604;13.318;2023-05-16T09:25:18;100906.28;;;12.42;71.04
57234;BME280;43090;52.604;13.318;2023-05-16T09:28:00;100884.53;;;12.81;70.66
57234;BME280;43090;52.604;13.318;2023-05-16T09:30:30;100904.69;;;12.98;70.41
57234;BME280;43090;52.604;13.318;2023-05-16T09:32:58;100891.19;;;12.64;67.35
57234;BME280;43090;52.604;13.318;2023-05-16T09:35:25;100904.13;;;12.59;68.03
57234;BME280;43090;52.604;13.318;2023-05-16T09:37:55;100903.78;;;12.63;68.57
57234;BME280;43090;52.604;13.318;2023-05-16T09:40:22;100911.75;;;12.88;67.34
57234;BME280;43090;52.604;13.318;2023-05-16T09:43:03;100905.03;;;12.93;68.22
57234;BME280;43090;52.604;13.318;2023-05-16T09:45:32;100899.59;;;12.48;67.12
57234;BME280;43090;52.604;13.318;2023-05-16T09:48:03;100909.19;;;12.86;66.35
57234;BME280;43090;52.604;13.318;2023-05-16T09:50:35;100936.06;;;12.97;67.37
57234;BME280;43090;52.604;13.318;2023-05-16T09:53:03;100913.50;;;13.11;66.68
57234;BME280;43090;52.604;13.318;2023-05-16T09:55:30;100940.81;;;12.82;66.71
57234;BME280;43090;52.604;13.318;2023-05-16T09:57:57;100944.63;;;13.03;67.66
57234;BME280;43090;52.604;13.318;2023-05-16T10:00:31;100955.84;;;12.96;68.35
57234;BME280;43090;52.604;13.318;2023-05-16T10:03:00;100936.56;;;13.03;68.36
57234;BME280;43090;52.604;13.318;2023-05-16T10:05:31;100947.69;;;12.98;68.33
57234;BME280;43090;52.604;13.318;2023-05-16T10:07:58;100953.28;;;12.95;68.50
57234;BME280;43090;52.604;13.318;2023-05-16T10:10:25;100957.59;;;13.20;67.77
57234;BME280;43090;52.604;13.318;2023-05-16T10:12:53;100955.63;;;12.99;66.31
57234;BME280;43090;52.604;13.318;2023-05-16T10:15:24;100961.94;;;12.76;67.09
57234;BME280;43090;52.604;13.318;2023-05-16T10:17:52;100962.13;;;12.61;69.73
57234;BME280;43090;52.604;13.318;2023-05-16T10:20:22;100967.06;;;12.79;68.79
57234;BME280;43090;52.604;13.318;2023-05-16T10:22:51;100962.13;;;13.20;67.47
57234;BME280;43090;52.604;13.318;2023-05-16T10:25:31;100957.78;;;12.83;67.81
57234;BME280;43090;52.604;13.318;2023-05-16T10:27:58;100950.81;;;12.69;67.92
57234;BME280;43090;52.604;13.318;2023-05-16T10:30:25;100964.13;;;12.71;70.00
57234;BME280;43090;52.604;13.318;2023-05-16T10:32:52;100963.28;;;12.81;69.67
57234;BME280;43090;52.604;13.318;2023-05-16T10:35:19;100980.16;;;12.48;69.91
57234;BME280;43090;52.604;13.318;2023-05-16T10:37:47;100971.84;;;12.51;69.20
57234;BME280;43090;52.604;13.318;2023-05-16T10:40:16;100975.03;;;12.45;70.38
57234;BME280;43090;52.604;13.318;2023-05-16T10:42:54;100982.16;;;12.57;70.34
57234;BME280;43090;52.604;13.318;2023-05-16T10:45:21;100979.88;;;12.75;70.14
57234;BME280;43090;52.604;13.318;2023-05-16T10:50:44;100984.78;;;12.46;70.78
57234;BME280;43090;52.604;13.318;2023-05-16T10:53:22;100981.56;;;12.41;68.46
57234;BME280;43090;52.604;13.318;2023-05-16T10:56:04;100985.09;;;12.65;69.66
57234;BME280;43090;52.604;13.318;2023-05-16T11:06:23;100982.31;;;13.14;65.98
57234;BME280;43090;52.604;13.318;2023-05-16T11:09:23;100975.41;;;12.98;65.46
57234;BME280;43090;52.604;13.318;2023-05-16T11:11:58;100971.50;;;12.91;64.54
57234;BME280;43090;52.604;13.318;2023-05-16T11:17:11;100969.63;;;13.50;63.96
57234;BME280;43090;52.604;13.318;2023-05-16T11:19:49;100971.84;;;13.45;63.87
57234;BME280;43090;52.604;13.318;2023-05-16T11:27:44;100973.31;;;13.38;60.96
57234;BME280;43090;52.604;13.318;2023-05-16T11:30:13;100990.34;;;13.03;61.75
57234;BME280;43090;52.604;13.318;2023-05-16T11:32:42;100995.13;;;13.10;61.57
57234;BME280;43090;52.604;13.318;2023-05-16T11:35:11;100996.03;;;13.33;62.11
57234;BME280;43090;52.604;13.318;2023-05-16T11:37:41;101002.84;;;13.26;61.17
57234;BME280;43090;52.604;13.318;2023-05-16T11:40:11;100992.47;;;13.22;61.86
57234;BME280;43090;52.604;13.318;2023-05-16T11:42:44;100990.25;;;13.15;62.96
57234;BME280;43090;52.604;13.318;2023-05-16T11:45:14;101003.38;;;12.85;62.75
57234;BME280;43090;52.604;13.318;2023-05-16T11:47:43;100992.78;;;13.06;63.58
57234;BME280;43090;52.604;13.318;2023-05-16T11:52:38;100995.81;;;13.01;62.99
57234;BME280;43090;52.604;13.318;2023-05-16T11:55:06;100988.47;;;13.50;62.29
57234;BME280;43090;52.604;13.318;2023-05-16T11:57:39;100990.75;;;13.21;61.06
57234;BME280;43090;52.604;13.318;2023-05-16T12:00:15;100986.03;;;13.70;59.75
57234;BME280;43090;52.604;13.318;2023-05-16T12:02:44;100991.53;;;14.23;59.42
57234;BME280;43090;52.604;13.318;2023-05-16T12:05:24;100982.03;;;14.52;59.22
57234;BME280;43090;52.604;13.318;2023-05-16T12:07:57;100971.69;;;14.68;56.72
57234;BME280;43090;52.604;13.318;2023-05-16T12:10:25;100991.50;;;15.30;56.05
57234;BME280;43090;52.604;13.318;2023-05-16T12:12:54;100968.34;;;15.28;55.14
57234;BME280;43090;52.604;13.318;2023-05-16T12:15:21;100951.69;;;15.13;54.56
57234;BME280;43090;52.604;13.318;2023-05-16T12:17:48;100959.88;;;14.80;52.10
57234;BME280;43090;52.604;13.318;2023-05-16T12:20:16;100975.22;;;14.36;54.82
57234;BME280;43090;52.604;13.318;2023-05-16T12:22:46;100937.19;;;14.18;52.45
57234;BME280;43090;52.604;13.318;2023-05-16T12:25:27;100991.44;;;14.90;53.13
57234;BME280;43090;52.604;13.318;2023-05-16T12:27:57;100979.78;;;14.89;53.57
57234;BME280;43090;52.604;13.318;2023-05-16T12:30:26;100977.16;;;14.45;51.59
57234;BME280;43090;52.604;13.318;2023-05-16T12:32:57;100999.06;;;14.85;53.81
57234;BME280;43090;52.604;13.318;2023-05-16T12:35:25;100991.16;;;14.28;54.14
57234;BME280;43090;52.604;13.318;2023-05-16T12:37:55;100997.31;;;14.51;53.83
57234;BME280;43090;52.604;13.318;2023-05-16T12:40:22;101001.53;;;14.44;52.05
57234;BME280;43090;52.604;13.318;2023-05-16T12:42:58;100987.75;;;14.58;52.81
57234;BME280;43090;52.604;13.318;2023-05-16T12:45:26;100984.66;;;14.63;50.51
57234;BME280;43090;52.604;13.318;2023-05-16T12:47:53;100999.81;;;14.43;50.00
57234;BME280;43090;52.604;13.318;2023-05-16T12:50:20;100991.56;;;14.56;50.77
57234;BME280;43090;52.604;13.318;2023-05-16T12:52:48;101004.81;;;14.80;52.60
57234;BME280;43090;52.604;13.318;2023-05-16T12:55:21;100992.72;;;14.74;51.77
57234;BME280;43090;52.604;13.318;2023-05-16T12:57:48;101017.84;;;14.96;50.52
57234;BME280;43090;52.604;13.318;2023-05-16T13:00:17;101008.81;;;14.64;49.72
57234;BME280;43090;52.604;13.318;2023-05-16T13:02:45;101009.16;;;14.71;51.08
57234;BME280;43090;52.604;13.318;2023-05-16T13:05:13;101014.81;;;15.10;51.07
57234;BME280;43090;52.604;13.318;2023-05-16T13:07:40;101013.56;;;15.14;50.86
57234;BME280;43090;52.604;13.318;2023-05-16T13:10:07;101010.16;;;14.91;51.32
57234;BME280;43090;52.604;13.318;2023-05-16T13:12:38;101001.28;;;14.79;49.76
57234;BME280;43090;52.604;13.318;2023-05-16T13:15:06;100991.94;;;15.05;51.09
57234;BME280;43090;52.604;13.318;2023-05-16T13:17:37;101005.09;;;14.77;50.49
57234;BME280;43090;52.604;13.318;2023-05-16T13:20:05;101009.44;;;14.89;49.43
57234;BME280;43090;52.604;13.318;2023-05-16T13:22:35;101004.50;;;14.94;49.94